sensor_id;sensor_type;location;lat;lon;timestamp;pressure;altitude;pressure_sealevel;temperature
75431;BMP280;64127;51.488;5.462;2023-07-28T00:01:42;100344.50;;;20.22
75431;BMP280;64127;51.488;5.462;2023-07-28T00:04:14;100340.06;;;20.22
75431;BMP280;64127;51.488;5.462;2023-07-28T00:06:46;100337.34;;;20.24
75431;BMP280;64127;51.488;5.462;2023-07-28T00:09:18;100333.81;;;20.25
75431;BMP280;64127;51.488;5.462;2023-07-28T00:11:50;100324.97;;;20.23
75431;BMP280;64127;51.488;5.462;2023-07-28T00:14:22;100325.81;;;20.27
75431;BMP280;64127;51.488;5.462;2023-07-28T00:16:57;100322.28;;;20.26
75431;BMP280;64127;51.488;5.462;2023-07-28T00:19:29;100326.72;;;20.29
75431;BMP280;64127;51.488;5.462;2023-07-28T00:22:01;100332.06;;;20.30
75431;BMP280;64127;51.488;5.462;2023-07-28T00:24:34;100332.94;;;20.29
75431;BMP280;64127;51.488;5.462;2023-07-28T00:27:06;100324.94;;;20.26
75431;BMP280;64127;51.488;5.462;2023-07-28T00:29:38;100330.28;;;20.23
75431;BMP280;64127;51.488;5.462;2023-07-28T00:32:10;100330.28;;;20.23
75431;BMP280;64127;51.488;5.462;2023-07-28T00:34:42;100323.22;;;20.20
75431;BMP280;64127;51.488;5.462;2023-07-28T00:37:14;100327.63;;;20.23
75431;BMP280;64127;51.488;5.462;2023-07-28T00:39:46;100323.19;;;20.22
75431;BMP280;64127;51.488;5.462;2023-07-28T00:42:18;100328.50;;;20.23
75431;BMP280;64127;51.488;5.462;2023-07-28T00:44:50;100335.63;;;20.23
75431;BMP280;64127;51.488;5.462;2023-07-28T00:47:22;100325.84;;;20.23
75431;BMP280;64127;51.488;5.462;2023-07-28T00:49:54;100308.13;;;20.19
75431;BMP280;64127;51.488;5.462;2023-07-28T00:52:26;100324.06;;;20.22
75431;BMP280;64127;51.488;5.462;2023-07-28T00:54:58;100326.72;;;20.21
75431;BMP280;64127;51.488;5.462;2023-07-28T00:57:30;100313.50;;;20.13
75431;BMP280;64127;51.488;5.462;2023-07-28T01:00:02;100307.31;;;20.10
75431;BMP280;64127;51.488;5.462;2023-07-28T01:02:35;100313.47;;;20.16
75431;BMP280;64127;51.488;5.462;2023-07-28T01:05:08;100320.53;;;20.17
75431;BMP280;64127;51.488;5.462;2023-07-28T01:07:53;100309.00;;;20.18
75431;BMP280;64127;51.488;5.462;2023-07-28T01:10:31;100317.88;;;20.19
75431;BMP280;64127;51.488;5.462;2023-07-28T01:13:06;100327.63;;;20.21
75431;BMP280;64127;51.488;5.462;2023-07-28T01:15:38;100324.97;;;20.23
75431;BMP280;64127;51.488;5.462;2023-07-28T01:18:11;100329.38;;;20.25
75431;BMP280;64127;51.488;5.462;2023-07-28T01:20:45;100332.94;;;20.28
75431;BMP280;64127;51.488;5.462;2023-07-28T01:23:36;100321.41;;;20.29
75431;BMP280;64127;51.488;5.462;2023-07-28T01:26:12;100323.13;;;20.31
75431;BMP280;64127;51.488;5.462;2023-07-28T01:28:45;100324.94;;;20.32
75431;BMP280;64127;51.488;5.462;2023-07-28T01:31:17;100326.72;;;20.30
75431;BMP280;64127;51.488;5.462;2023-07-28T01:33:49;100335.59;;;20.29
75431;BMP280;64127;51.488;5.462;2023-07-28T01:36:22;100338.28;;;20.31
75431;BMP280;64127;51.488;5.462;2023-07-28T01:38:54;100321.44;;;20.27
75431;BMP280;64127;51.488;5.462;2023-07-28T01:41:26;100315.16;;;20.25
75431;BMP280;64127;51.488;5.462;2023-07-28T01:43:58;100321.41;;;20.21
75431;BMP280;64127;51.488;5.462;2023-07-28T01:46:30;100324.06;;;20.22
75431;BMP280;64127;51.488;5.462;2023-07-28T01:49:03;100327.63;;;20.21
75431;BMP280;64127;51.488;5.462;2023-07-28T01:51:35;100337.34;;;20.24
75431;BMP280;64127;51.488;5.462;2023-07-28T01:54:07;100326.75;;;20.22
75431;BMP280;64127;51.488;5.462;2023-07-28T01:56:39;100336.47;;;20.28
75431;BMP280;64127;51.488;5.462;2023-07-28T01:59:11;100326.72;;;20.29
75431;BMP280;64127;51.488;5.462;2023-07-28T02:01:43;100328.47;;;20.31
75431;BMP280;64127;51.488;5.462;2023-07-28T02:04:15;100327.59;;;20.32
75431;BMP280;64127;51.488;5.462;2023-07-28T02:06:48;100324.94;;;20.29
75431;BMP280;64127;51.488;5.462;2023-07-28T02:09:20;100330.28;;;20.31
75431;BMP280;64127;51.488;5.462;2023-07-28T02:11:52;100332.94;;;20.31
75431;BMP280;64127;51.488;5.462;2023-07-28T02:14:24;100324.03;;;20.32
75431;BMP280;64127;51.488;5.462;2023-07-28T02:16:56;100324.03;;;20.32
75431;BMP280;64127;51.488;5.462;2023-07-28T02:19:28;100326.72;;;20.30
75431;BMP280;64127;51.488;5.462;2023-07-28T02:22:00;100324.94;;;20.34
75431;BMP280;64127;51.488;5.462;2023-07-28T02:24:32;100326.72;;;20.30
75431;BMP280;64127;51.488;5.462;2023-07-28T02:27:04;100326.72;;;20.30
75431;BMP280;64127;51.488;5.462;2023-07-28T02:29:37;100330.28;;;20.31
75431;BMP280;64127;51.488;5.462;2023-07-28T02:32:09;100336.50;;;20.30
75431;BMP280;64127;51.488;5.462;2023-07-28T02:34:41;100339.16;;;20.28
75431;BMP280;64127;51.488;5.462;2023-07-28T02:37:15;100335.59;;;20.28
75431;BMP280;64127;51.488;5.462;2023-07-28T02:39:47;100332.06;;;20.27
75431;BMP280;64127;51.488;5.462;2023-07-28T02:42:19;100340.94;;;20.29
75431;BMP280;64127;51.488;5.462;2023-07-28T02:44:51;100342.72;;;20.27
75431;BMP280;64127;51.488;5.462;2023-07-28T02:47:23;100344.47;;;20.28
75431;BMP280;64127;51.488;5.462;2023-07-28T02:49:55;100340.03;;;20.29
75431;BMP280;64127;51.488;5.462;2023-07-28T02:52:27;100341.81;;;20.28
75431;BMP280;64127;51.488;5.462;2023-07-28T02:54:59;100355.13;;;20.27
75431;BMP280;64127;51.488;5.462;2023-07-28T02:57:31;100348.06;;;20.27
75431;BMP280;64127;51.488;5.462;2023-07-28T03:00:04;100351.56;;;20.26
75431;BMP280;64127;51.488;5.462;2023-07-28T03:02:37;100355.13;;;20.28
75431;BMP280;64127;51.488;5.462;2023-07-28T03:05:09;100354.25;;;20.29
75431;BMP280;64127;51.488;5.462;2023-07-28T03:07:41;100355.09;;;20.31
75431;BMP280;64127;51.488;5.462;2023-07-28T03:10:13;100350.66;;;20.32
75431;BMP280;64127;51.488;5.462;2023-07-28T03:12:48;100353.31;;;20.33
75431;BMP280;64127;51.488;5.462;2023-07-28T03:15:21;100349.78;;;20.34
75431;BMP280;64127;51.488;5.462;2023-07-28T03:17:55;100328.50;;;20.22
75431;BMP280;64127;51.488;5.462;2023-07-28T03:20:27;100356.84;;;20.35
75431;BMP280;64127;51.488;5.462;2023-07-28T03:22:59;100358.66;;;20.33
75431;BMP280;64127;51.488;5.462;2023-07-28T03:25:32;100362.19;;;20.37
75431;BMP280;64127;51.488;5.462;2023-07-28T03:28:04;100353.28;;;20.39
75431;BMP280;64127;51.488;5.462;2023-07-28T03:30:36;100351.47;;;20.43
75431;BMP280;64127;51.488;5.462;2023-07-28T03:33:08;100357.72;;;20.40
75431;BMP280;64127;51.488;5.462;2023-07-28T03:35:40;100363.94;;;20.39
75431;BMP280;64127;51.488;5.462;2023-07-28T03:38:12;100359.53;;;20.34
75431;BMP280;64127;51.488;5.462;2023-07-28T03:40:44;100369.25;;;20.39
75431;BMP280;64127;51.488;5.462;2023-07-28T03:43:16;100362.19;;;20.35
75431;BMP280;64127;51.488;5.462;2023-07-28T03:45:48;100373.72;;;20.36
75431;BMP280;64127;51.488;5.462;2023-07-28T03:48:20;100386.16;;;20.35
75431;BMP280;64127;51.488;5.462;2023-07-28T03:50:52;100387.94;;;20.33
75431;BMP280;64127;51.488;5.462;2023-07-28T03:53:24;100387.06;;;20.34
75431;BMP280;64127;51.488;5.462;2023-07-28T03:55:56;100384.38;;;20.37
75431;BMP280;64127;51.488;5.462;2023-07-28T03:58:30;100370.22;;;20.31
75431;BMP280;64127;51.488;5.462;2023-07-28T04:01:02;100388.75;;;20.41
75431;BMP280;64127;51.488;5.462;2023-07-28T04:03:34;100385.22;;;20.42
75431;BMP280;64127;51.488;5.462;2023-07-28T04:06:11;100389.66;;;20.42
75431;BMP280;64127;51.488;5.462;2023-07-28T04:08:44;100390.53;;;20.44
75431;BMP280;64127;51.488;5.462;2023-07-28T04:11:16;100384.34;;;20.39
75431;BMP280;64127;51.488;5.462;2023-07-28T04:13:48;100394.13;;;20.38
75431;BMP280;64127;51.488;5.462;2023-07-28T04:16:20;100387.75;;;20.60
75431;BMP280;64127;51.488;5.462;2023-07-28T04:18:52;100373.72;;;20.36
75431;BMP280;64127;51.488;5.462;2023-07-28T04:21:24;100376.38;;;20.37
75431;BMP280;64127;51.488;5.462;2023-07-28T04:23:56;100379.94;;;20.35
75431;BMP280;64127;51.488;5.462;2023-07-28T04:26:28;100383.50;;;20.37
75431;BMP280;64127;51.488;5.462;2023-07-28T04:29:00;100387.03;;;20.37
75431;BMP280;64127;51.488;5.462;2023-07-28T04:31:33;100390.53;;;20.42
75431;BMP280;64127;51.488;5.462;2023-07-28T04:34:05;100393.22;;;20.44
75431;BMP280;64127;51.488;5.462;2023-07-28T04:36:37;100379.91;;;20.39
75431;BMP280;64127;51.488;5.462;2023-07-28T04:39:09;100387.00;;;20.43
75431;BMP280;64127;51.488;5.462;2023-07-28T04:41:41;100395.88;;;20.42
75431;BMP280;64127;51.488;5.462;2023-07-28T04:44:13;100385.22;;;20.42
75431;BMP280;64127;51.488;5.462;2023-07-28T04:46:45;100385.22;;;20.42
75431;BMP280;64127;51.488;5.462;2023-07-28T04:49:19;100387.91;;;20.41
75431;BMP280;64127;51.488;5.462;2023-07-28T04:51:53;100381.66;;;20.43
75431;BMP280;64127;51.488;5.462;2023-07-28T04:54:25;100387.88;;;20.44
75431;BMP280;64127;51.488;5.462;2023-07-28T04:56:57;100392.31;;;20.42
75431;BMP280;64127;51.488;5.462;2023-07-28T04:59:29;100392.31;;;20.42
75431;BMP280;64127;51.488;5.462;2023-07-28T05:02:01;100394.97;;;20.43
75431;BMP280;64127;51.488;5.462;2023-07-28T05:04:33;100372.88;;;20.29
75431;BMP280;64127;51.488;5.462;2023-07-28T05:07:05;100390.53;;;20.42
75431;BMP280;64127;51.488;5.462;2023-07-28T05:09:37;100391.44;;;20.43
75431;BMP280;64127;51.488;5.462;2023-07-28T05:12:09;100396.75;;;20.44
75431;BMP280;64127;51.488;5.462;2023-07-28T05:14:42;100403.88;;;20.44
75431;BMP280;64127;51.488;5.462;2023-07-28T05:17:14;100405.63;;;20.43
75431;BMP280;64127;51.488;5.462;2023-07-28T05:19:50;100413.59;;;20.46
75431;BMP280;64127;51.488;5.462;2023-07-28T05:22:22;100410.94;;;20.48
75431;BMP280;64127;51.488;5.462;2023-07-28T05:24:54;100410.03;;;20.49
75431;BMP280;64127;51.488;5.462;2023-07-28T05:27:26;100420.69;;;20.50
75431;BMP280;64127;51.488;5.462;2023-07-28T05:29:59;100421.59;;;20.48
75431;BMP280;64127;51.488;5.462;2023-07-28T05:32:31;100426.91;;;20.51
75431;BMP280;64127;51.488;5.462;2023-07-28T05:35:04;100424.22;;;20.52
75431;BMP280;64127;51.488;5.462;2023-07-28T05:37:36;100432.19;;;20.55
75431;BMP280;64127;51.488;5.462;2023-07-28T05:40:09;100428.63;;;20.56
75431;BMP280;64127;51.488;5.462;2023-07-28T05:42:41;100427.78;;;20.54
75431;BMP280;64127;51.488;5.462;2023-07-28T05:45:13;100432.16;;;20.58
75431;BMP280;64127;51.488;5.462;2023-07-28T05:47:45;100433.06;;;20.57
75431;BMP280;64127;51.488;5.462;2023-07-28T05:50:18;100437.50;;;20.60
75431;BMP280;64127;51.488;5.462;2023-07-28T05:52:50;100441.06;;;20.56
75431;BMP280;64127;51.488;5.462;2023-07-28T05:55:22;100446.44;;;20.54
75431;BMP280;64127;51.488;5.462;2023-07-28T05:57:54;100446.41;;;20.57
75431;BMP280;64127;51.488;5.462;2023-07-28T06:00:26;100449.06;;;20.57
75431;BMP280;64127;51.488;5.462;2023-07-28T06:02:58;100441.94;;;20.59
75431;BMP280;64127;51.488;5.462;2023-07-28T06:05:30;100441.94;;;20.59
75431;BMP280;64127;51.488;5.462;2023-07-28T06:08:02;100443.69;;;20.62
75431;BMP280;64127;51.488;5.462;2023-07-28T06:10:35;100437.50;;;20.57
75431;BMP280;64127;51.488;5.462;2023-07-28T06:13:07;100438.34;;;20.63
75431;BMP280;64127;51.488;5.462;2023-07-28T06:15:41;100438.38;;;20.60
75431;BMP280;64127;51.488;5.462;2023-07-28T06:18:14;100443.66;;;20.66
75431;BMP280;64127;51.488;5.462;2023-07-28T06:20:46;100437.47;;;20.64
75431;BMP280;64127;51.488;5.462;2023-07-28T06:23:18;100439.22;;;20.68
75431;BMP280;64127;51.488;5.462;2023-07-28T06:25:50;100443.63;;;20.72
75431;BMP280;64127;51.488;5.462;2023-07-28T06:28:22;100437.41;;;20.69
75431;BMP280;64127;51.488;5.462;2023-07-28T06:30:55;100439.22;;;20.68
75431;BMP280;64127;51.488;5.462;2023-07-28T06:33:29;100434.84;;;20.60
75431;BMP280;64127;51.488;5.462;2023-07-28T06:36:01;100455.22;;;20.68
75431;BMP280;64127;51.488;5.462;2023-07-28T06:38:33;100452.53;;;20.71
75431;BMP280;64127;51.488;5.462;2023-07-28T06:41:05;100460.50;;;20.74
75431;BMP280;64127;51.488;5.462;2023-07-28T06:43:37;100460.47;;;20.76
75431;BMP280;64127;51.488;5.462;2023-07-28T06:46:09;100465.81;;;20.78
75431;BMP280;64127;51.488;5.462;2023-07-28T06:48:41;100462.25;;;20.79
75431;BMP280;64127;51.488;5.462;2023-07-28T06:51:13;100456.88;;;20.83
75431;BMP280;64127;51.488;5.462;2023-07-28T06:53:46;100466.63;;;20.89
75431;BMP280;64127;51.488;5.462;2023-07-28T06:56:18;100465.69;;;20.90
75431;BMP280;64127;51.488;5.462;2023-07-28T06:58:50;100465.72;;;20.87
75431;BMP280;64127;51.488;5.462;2023-07-28T07:01:39;100474.59;;;20.90
75431;BMP280;64127;51.488;5.462;2023-07-28T07:04:11;100479.94;;;20.92
75431;BMP280;64127;51.488;5.462;2023-07-28T07:06:43;100476.38;;;20.91
75431;BMP280;64127;51.488;5.462;2023-07-28T07:09:16;100479.88;;;20.93
75431;BMP280;64127;51.488;5.462;2023-07-28T07:11:48;100488.78;;;20.95
75431;BMP280;64127;51.488;5.462;2023-07-28T07:14:20;100487.91;;;20.95
75431;BMP280;64127;51.488;5.462;2023-07-28T07:16:52;100489.69;;;20.96
75431;BMP280;64127;51.488;5.462;2023-07-28T07:19:24;100494.09;;;20.97
75431;BMP280;64127;51.488;5.462;2023-07-28T07:21:56;100486.09;;;20.97
75431;BMP280;64127;51.488;5.462;2023-07-28T07:24:28;100497.66;;;20.99
75431;BMP280;64127;51.488;5.462;2023-07-28T07:27:00;100495.00;;;20.96
75431;BMP280;64127;51.488;5.462;2023-07-28T07:29:32;100497.66;;;20.93
75431;BMP280;64127;51.488;5.462;2023-07-28T07:32:06;100493.22;;;20.99
75431;BMP280;64127;51.488;5.462;2023-07-28T07:34:38;100500.25;;;21.05
75431;BMP280;64127;51.488;5.462;2023-07-28T07:37:10;100500.22;;;21.08
75431;BMP280;64127;51.488;5.462;2023-07-28T07:39:42;100501.13;;;21.10
75431;BMP280;64127;51.488;5.462;2023-07-28T07:42:15;100508.22;;;21.14
75431;BMP280;64127;51.488;5.462;2023-07-28T07:44:47;100505.53;;;21.14
75431;BMP280;64127;51.488;5.462;2023-07-28T07:47:19;100507.34;;;21.12
75431;BMP280;64127;51.488;5.462;2023-07-28T07:49:51;100511.81;;;21.13
75431;BMP280;64127;51.488;5.462;2023-07-28T07:52:23;100517.09;;;21.17
75431;BMP280;64127;51.488;5.462;2023-07-28T07:54:55;100509.09;;;21.16
75431;BMP280;64127;51.488;5.462;2023-07-28T07:57:27;100482.47;;;21.04
75431;BMP280;64127;51.488;5.462;2023-07-28T07:59:59;100510.81;;;21.26
75431;BMP280;64127;51.488;5.462;2023-07-28T08:02:31;100514.34;;;21.23
75431;BMP280;64127;51.488;5.462;2023-07-28T08:05:04;100517.94;;;21.21
75431;BMP280;64127;51.488;5.462;2023-07-28T08:07:36;100516.16;;;21.20
75431;BMP280;64127;51.488;5.462;2023-07-28T08:10:09;100510.84;;;21.17
75431;BMP280;64127;51.488;5.462;2023-07-28T08:12:41;100519.72;;;21.22
75431;BMP280;64127;51.488;5.462;2023-07-28T08:15:16;100521.50;;;21.21
75431;BMP280;64127;51.488;5.462;2023-07-28T08:17:48;100522.38;;;21.20
75431;BMP280;64127;51.488;5.462;2023-07-28T08:20:20;100522.38;;;21.22
75431;BMP280;64127;51.488;5.462;2023-07-28T08:22:52;100526.84;;;21.23
75431;BMP280;64127;51.488;5.462;2023-07-28T08:25:25;100516.19;;;21.17
75431;BMP280;64127;51.488;5.462;2023-07-28T08:27:57;100528.63;;;21.22
75431;BMP280;64127;51.488;5.462;2023-07-28T08:30:29;100529.53;;;21.18
75431;BMP280;64127;51.488;5.462;2023-07-28T08:33:01;100539.22;;;21.27
75431;BMP280;64127;51.488;5.462;2023-07-28T08:35:34;100534.75;;;21.32
75431;BMP280;64127;51.488;5.462;2023-07-28T08:38:06;100524.09;;;21.31
75431;BMP280;64127;51.488;5.462;2023-07-28T08:40:38;100526.66;;;21.43
75431;BMP280;64127;51.488;5.462;2023-07-28T08:43:10;100534.59;;;21.52
75431;BMP280;64127;51.488;5.462;2023-07-28T08:45:42;100536.31;;;21.59
75431;BMP280;64127;51.488;5.462;2023-07-28T08:48:14;100539.81;;;21.64
75431;BMP280;64127;51.488;5.462;2023-07-28T08:50:46;100536.22;;;21.69
75431;BMP280;64127;51.488;5.462;2023-07-28T08:53:19;100537.03;;;21.78
75431;BMP280;64127;51.488;5.462;2023-07-28T08:55:51;100535.13;;;21.89
75431;BMP280;64127;51.488;5.462;2023-07-28T08:58:23;100536.88;;;21.94
75431;BMP280;64127;51.488;5.462;2023-07-28T09:00:56;100529.81;;;21.92
75431;BMP280;64127;51.488;5.462;2023-07-28T09:03:32;100534.22;;;21.93
75431;BMP280;64127;51.488;5.462;2023-07-28T09:06:09;100533.22;;;22.03
75431;BMP280;64127;51.488;5.462;2023-07-28T09:08:43;100534.03;;;22.11
75431;BMP280;64127;51.488;5.462;2023-07-28T09:11:15;100531.38;;;22.11
75431;BMP280;64127;51.488;5.462;2023-07-28T09:13:47;100537.53;;;22.17
75431;BMP280;64127;51.488;5.462;2023-07-28T09:16:21;100542.75;;;22.27
75431;BMP280;64127;51.488;5.462;2023-07-28T09:19:09;100541.84;;;22.26
75431;BMP280;64127;51.488;5.462;2023-07-28T09:21:43;100532.97;;;22.26
75431;BMP280;64127;51.488;5.462;2023-07-28T09:24:17;100536.34;;;22.41
75431;BMP280;64127;51.488;5.462;2023-07-28T09:26:49;100546.06;;;22.50
75431;BMP280;64127;51.488;5.462;2023-07-28T09:29:22;100538.84;;;22.55
75431;BMP280;64127;51.488;5.462;2023-07-28T09:32:06;100543.22;;;22.60
75431;BMP280;64127;51.488;5.462;2023-07-28T09:34:38;100545.00;;;22.61
75431;BMP280;64127;51.488;5.462;2023-07-28T09:37:12;100544.94;;;22.64
75431;BMP280;64127;51.488;5.462;2023-07-28T09:39:44;100544.94;;;22.67
75431;BMP280;64127;51.488;5.462;2023-07-28T09:42:17;100540.44;;;22.71
75431;BMP280;64127;51.488;5.462;2023-07-28T09:44:49;100546.66;;;22.71
75431;BMP280;64127;51.488;5.462;2023-07-28T09:47:21;100551.13;;;22.72
75431;BMP280;64127;51.488;5.462;2023-07-28T09:49:56;100548.41;;;22.76
75431;BMP280;64127;51.488;5.462;2023-07-28T09:52:46;100546.53;;;22.82
75431;BMP280;64127;51.488;5.462;2023-07-28T09:55:19;100546.28;;;22.99
75431;BMP280;64127;51.488;5.462;2023-07-28T09:57:54;100544.34;;;23.10
75431;BMP280;64127;51.488;5.462;2023-07-28T10:00:28;100533.69;;;23.07
75431;BMP280;64127;51.488;5.462;2023-07-28T10:03:02;100553.19;;;23.15
75431;BMP280;64127;51.488;5.462;2023-07-28T10:05:35;100546.84;;;23.20
75431;BMP280;64127;51.488;5.462;2023-07-28T10:08:07;100553.94;;;23.23
75431;BMP280;64127;51.488;5.462;2023-07-28T10:10:41;100544.06;;;23.28
75431;BMP280;64127;51.488;5.462;2023-07-28T10:13:21;100551.94;;;23.39
75431;BMP280;64127;51.488;5.462;2023-07-28T10:15:54;100559.94;;;23.42
75431;BMP280;64127;51.488;5.462;2023-07-28T10:18:26;100552.75;;;23.44
75431;BMP280;64127;51.488;5.462;2023-07-28T10:21:10;100553.59;;;23.49
75431;BMP280;64127;51.488;5.462;2023-07-28T10:23:53;100556.16;;;23.53
75431;BMP280;64127;51.488;5.462;2023-07-28T10:26:38;100557.81;;;23.60
75431;BMP280;64127;51.488;5.462;2023-07-28T10:29:16;100551.56;;;23.63
75431;BMP280;64127;51.488;5.462;2023-07-28T10:31:55;100547.88;;;23.67
75431;BMP280;64127;51.488;5.462;2023-07-28T10:34:30;100561.16;;;23.74
75431;BMP280;64127;51.488;5.462;2023-07-28T10:37:02;100562.81;;;23.82
75431;BMP280;64127;51.488;5.462;2023-07-28T10:39:34;100562.81;;;23.82
75431;BMP280;64127;51.488;5.462;2023-07-28T10:42:10;100554.78;;;23.83
75431;BMP280;64127;51.488;5.462;2023-07-28T10:44:42;100552.78;;;23.93
75431;BMP280;64127;51.488;5.462;2023-07-28T10:47:14;100549.97;;;24.00
75431;BMP280;64127;51.488;5.462;2023-07-28T10:49:47;100547.06;;;24.14
75431;BMP280;64127;51.488;5.462;2023-07-28T10:52:23;100547.94;;;24.14
75431;BMP280;64127;51.488;5.462;2023-07-28T10:54:56;100540.72;;;24.18
75431;BMP280;64127;51.488;5.462;2023-07-28T10:57:29;100540.44;;;24.32
75431;BMP280;64127;51.488;5.462;2023-07-28T11:00:01;100540.16;;;24.47
75431;BMP280;64127;51.488;5.462;2023-07-28T11:02:59;100528.16;;;24.64
75431;BMP280;64127;51.488;5.462;2023-07-28T11:05:30;100528.06;;;24.69
75431;BMP280;64127;51.488;5.462;2023-07-28T11:08:03;100531.56;;;24.71
75431;BMP280;64127;51.488;5.462;2023-07-28T11:10:35;100533.81;;;24.92
75431;BMP280;64127;51.488;5.462;2023-07-28T11:13:07;100536.06;;;25.10
75431;BMP280;64127;51.488;5.462;2023-07-28T11:16:00;100520.19;;;25.01
75431;BMP280;64127;51.488;5.462;2023-07-28T11:18:34;100533.84;;;24.91
75431;BMP280;64127;51.488;5.462;2023-07-28T11:21:06;100532.94;;;24.92
75431;BMP280;64127;51.488;5.462;2023-07-28T11:23:38;100529.28;;;24.96
75431;BMP280;64127;51.488;5.462;2023-07-28T11:26:11;100525.88;;;24.88
75431;BMP280;64127;51.488;5.462;2023-07-28T11:28:45;100531.16;;;24.91
75431;BMP280;64127;51.488;5.462;2023-07-28T11:31:17;100533.59;;;25.01
75431;BMP280;64127;51.488;5.462;2023-07-28T11:33:49;100528.97;;;25.08
75431;BMP280;64127;51.488;5.462;2023-07-28T11:36:24;100531.72;;;25.05
75431;BMP280;64127;51.488;5.462;2023-07-28T11:39:00;100531.91;;;24.97
75431;BMP280;64127;51.488;5.462;2023-07-28T11:41:34;100533.91;;;24.88
75431;BMP280;64127;51.488;5.462;2023-07-28T11:44:06;100539.38;;;24.82
75431;BMP280;64127;51.488;5.462;2023-07-28T11:46:42;100540.44;;;24.74
75431;BMP280;64127;51.488;5.462;2023-07-28T11:49:20;100543.06;;;24.76
75431;BMP280;64127;51.488;5.462;2023-07-28T11:51:55;100534.09;;;24.79
75431;BMP280;64127;51.488;5.462;2023-07-28T11:54:30;100537.47;;;24.90
75431;BMP280;64127;51.488;5.462;2023-07-28T11:57:03;100532.84;;;24.95
75431;BMP280;64127;51.488;5.462;2023-07-28T11:59:36;100538.00;;;25.04
75431;BMP280;64127;51.488;5.462;2023-07-28T12:02:09;100531.50;;;25.14
75431;BMP280;64127;51.488;5.462;2023-07-28T12:04:44;100539.44;;;25.18
75431;BMP280;64127;51.488;5.462;2023-07-28T12:07:33;100541.31;;;25.16
75431;BMP280;64127;51.488;5.462;2023-07-28T12:10:07;100544.00;;;25.15
75431;BMP280;64127;51.488;5.462;2023-07-28T12:12:46;100523.81;;;24.99
75431;BMP280;64127;51.488;5.462;2023-07-28T12:15:30;100539.06;;;24.97
75431;BMP280;64127;51.488;5.462;2023-07-28T12:18:16;100544.66;;;24.88
75431;BMP280;64127;51.488;5.462;2023-07-28T12:20:53;100534.97;;;24.79
75431;BMP280;64127;51.488;5.462;2023-07-28T12:23:25;100538.50;;;24.81
75431;BMP280;64127;51.488;5.462;2023-07-28T12:26:00;100551.91;;;24.81
75431;BMP280;64127;51.488;5.462;2023-07-28T12:28:32;100546.56;;;24.80
75431;BMP280;64127;51.488;5.462;2023-07-28T12:31:15;100555.63;;;24.76
75431;BMP280;64127;51.488;5.462;2023-07-28T12:33:47;100553.91;;;24.71
75431;BMP280;64127;51.488;5.462;2023-07-28T12:36:20;100548.06;;;24.94
75431;BMP280;64127;51.488;5.462;2023-07-28T12:38:55;100545.91;;;24.70
75431;BMP280;64127;51.488;5.462;2023-07-28T12:41:27;100560.19;;;24.72
75431;BMP280;64127;51.488;5.462;2023-07-28T12:44:12;100552.28;;;24.64
75431;BMP280;64127;51.488;5.462;2023-07-28T12:46:48;100553.13;;;24.66
75431;BMP280;64127;51.488;5.462;2023-07-28T12:49:20;100555.81;;;24.66
75431;BMP280;64127;51.488;5.462;2023-07-28T12:51:52;100565.47;;;24.75
75431;BMP280;64127;51.488;5.462;2023-07-28T12:54:27;100559.03;;;24.84
75431;BMP280;64127;51.488;5.462;2023-07-28T12:56:59;100554.41;;;24.92
75431;BMP280;64127;51.488;5.462;2023-07-28T12:59:35;100548.94;;;25.33
75431;BMP280;64127;51.488;5.462;2023-07-28T13:02:27;100559.69;;;25.33
75431;BMP280;64127;51.488;5.462;2023-07-28T13:04:59;100560.53;;;25.35
75431;BMP280;64127;51.488;5.462;2023-07-28T13:07:31;100555.06;;;25.38
75431;BMP280;64127;51.488;5.462;2023-07-28T13:10:08;100557.63;;;25.44
75431;BMP280;64127;51.488;5.462;2023-07-28T13:13:02;100555.06;;;25.40
75431;BMP280;64127;51.488;5.462;2023-07-28T13:15:34;100560.44;;;25.38
75431;BMP280;64127;51.488;5.462;2023-07-28T13:18:06;100547.09;;;25.35
75431;BMP280;64127;51.488;5.462;2023-07-28T13:20:38;100550.59;;;25.39
75431;BMP280;64127;51.488;5.462;2023-07-28T13:23:10;100565.81;;;25.38
75431;BMP280;64127;51.488;5.462;2023-07-28T13:25:42;100558.72;;;25.36
75431;BMP280;64127;51.488;5.462;2023-07-28T13:28:14;100557.84;;;25.35
75431;BMP280;64127;51.488;5.462;2023-07-28T13:30:46;100559.47;;;25.42
75431;BMP280;64127;51.488;5.462;2023-07-28T13:33:18;100546.78;;;25.50
75431;BMP280;64127;51.488;5.462;2023-07-28T13:35:50;100527.22;;;25.42
75431;BMP280;64127;51.488;5.462;2023-07-28T13:38:23;100548.53;;;25.51
75431;BMP280;64127;51.488;5.462;2023-07-28T13:40:55;100547.69;;;25.48
75431;BMP280;64127;51.488;5.462;2023-07-28T13:43:27;100551.38;;;25.44
75431;BMP280;64127;51.488;5.462;2023-07-28T13:45:59;100547.97;;;25.37
75431;BMP280;64127;51.488;5.462;2023-07-28T13:48:31;100550.72;;;25.34
75431;BMP280;64127;51.488;5.462;2023-07-28T13:51:23;100550.84;;;25.28
75431;BMP280;64127;51.488;5.462;2023-07-28T13:54:15;100556.22;;;25.28
75431;BMP280;64127;51.488;5.462;2023-07-28T13:56:50;100552.78;;;25.23
75431;BMP280;64127;51.488;5.462;2023-07-28T13:59:25;100545.72;;;25.19
75431;BMP280;64127;51.488;5.462;2023-07-28T14:01:57;100551.00;;;25.22
75431;BMP280;64127;51.488;5.462;2023-07-28T14:04:30;100544.81;;;25.20
75431;BMP280;64127;51.488;5.462;2023-07-28T14:07:03;100515.69;;;25.02
75431;BMP280;64127;51.488;5.462;2023-07-28T14:09:35;100546.47;;;25.24
75431;BMP280;64127;51.488;5.462;2023-07-28T14:12:08;100540.09;;;25.28
75431;BMP280;64127;51.488;5.462;2023-07-28T14:14:40;100543.75;;;25.27
75431;BMP280;64127;51.488;5.462;2023-07-28T14:17:12;100540.19;;;25.25
75431;BMP280;64127;51.488;5.462;2023-07-28T14:19:44;100541.22;;;25.19
75431;BMP280;64127;51.488;5.462;2023-07-28T14:22:16;100547.34;;;25.26
75431;BMP280;64127;51.488;5.462;2023-07-28T14:24:48;100545.41;;;25.31
75431;BMP280;64127;51.488;5.462;2023-07-28T14:27:20;100540.03;;;25.31
75431;BMP280;64127;51.488;5.462;2023-07-28T14:29:53;100544.50;;;25.32
75431;BMP280;64127;51.488;5.462;2023-07-28T14:32:24;100538.06;;;25.39